createdAt,value
2022-09-14T00:01:46.678Z,99100.19
2022-09-14T00:04:19.388Z,99097.19
2022-09-14T00:06:48.296Z,99092.06
2022-09-14T00:09:23.821Z,99090.63
2022-09-14T00:11:53.717Z,99097.59
2022-09-14T00:14:22.049Z,99090.19
2022-09-14T00:16:51.094Z,99083.81
2022-09-14T00:19:27.181Z,99095.34
2022-09-14T00:21:59.734Z,99082.69
2022-09-14T00:24:31.158Z,99088.91
2022-09-14T00:27:05.533Z,99091.13
2022-09-14T00:29:36.971Z,99096.34
2022-09-14T00:32:06.627Z,99102.09
2022-09-14T00:34:35.007Z,99094.69
2022-09-14T00:37:02.757Z,99085.44
2022-09-14T00:39:32.216Z,99090.31
2022-09-14T00:42:01.789Z,99091.28
2022-09-14T00:44:29.329Z,99092.44
2022-09-14T00:47:01.878Z,99078.16
2022-09-14T00:49:40.879Z,99085.44
2022-09-14T00:52:28.922Z,99079.91
2022-09-14T00:55:03.458Z,99076.75
2022-09-14T00:57:45.468Z,99075.91
2022-09-14T01:00:21.961Z,99065.19
2022-09-14T01:02:52.091Z,99064.47
2022-09-14T01:05:28.823Z,99070.66
2022-09-14T01:08:58.886Z,99060.91
2022-09-14T01:12:23.850Z,99064.75
2022-09-14T01:15:25.323Z,99054.63
2022-09-14T01:18:08.490Z,99066.59
2022-09-14T01:20:55.455Z,99060.31
2022-09-14T01:23:41.534Z,99059.78
2022-09-14T01:27:07.440Z,99059.91
2022-09-14T01:30:10.180Z,99070.47
2022-09-14T01:33:11.223Z,99060.78
2022-09-14T01:36:08.658Z,99053.50
2022-09-14T01:38:54.264Z,99049.38
2022-09-14T01:41:31.442Z,99047.22
2022-09-14T01:44:32.538Z,99038.66
2022-09-14T01:47:26.630Z,99041.94
2022-09-14T01:50:37.242Z,99034.81
2022-09-14T01:53:28.226Z,99036.22
2022-09-14T01:56:24.702Z,99039.34
2022-09-14T01:59:15.150Z,99039.00
2022-09-14T02:01:55.373Z,99033.31
2022-09-14T02:05:15.532Z,99030.69
2022-09-14T02:07:43.247Z,99026.97
2022-09-14T02:10:17.512Z,99022.34
2022-09-14T02:12:47.167Z,99026.03
2022-09-14T02:15:16.823Z,99015.78
2022-09-14T02:17:44.774Z,99012.00
2022-09-14T02:20:39.911Z,99010.88
2022-09-14T02:23:09.831Z,99006.94
2022-09-14T02:25:41.184Z,99009.38
2022-09-14T02:28:09.166Z,99007.47
2022-09-14T02:31:09.984Z,99007.88
2022-09-14T02:34:09.287Z,99000.84
2022-09-14T02:37:20.459Z,99000.22
2022-09-14T02:40:54.023Z,98997.25
2022-09-14T02:44:13.630Z,98988.50
2022-09-14T02:47:21.726Z,98981.16
2022-09-14T02:50:36.236Z,98972.59
2022-09-14T02:53:19.983Z,98969.13
2022-09-14T02:56:00.925Z,98969.59
2022-09-14T02:58:40.710Z,98975.16
2022-09-14T03:01:17.047Z,98977.03
2022-09-14T03:03:44.886Z,98972.69
2022-09-14T03:06:13.796Z,98966.78
2022-09-14T03:08:44.226Z,98964.97
2022-09-14T03:11:12.483Z,98968.47
2022-09-14T03:13:40.741Z,98956.50
2022-09-14T03:16:15.210Z,98945.56
2022-09-14T03:18:43.094Z,98948.56
2022-09-14T03:21:17.641Z,98948.41
2022-09-14T03:23:51.565Z,98958.50
2022-09-14T03:26:23.224Z,98956.06
2022-09-14T03:28:59.341Z,98959.72
2022-09-14T03:31:28.528Z,98956.06
2022-09-14T03:34:00.642Z,98963.25
2022-09-14T03:36:31.715Z,98962.34
2022-09-14T03:39:02.034Z,98963.88
2022-09-14T03:41:30.070Z,98956.53
2022-09-14T03:43:57.754Z,98955.81
2022-09-14T03:46:27.084Z,98963.88
2022-09-14T03:48:56.445Z,98959.50
2022-09-14T03:51:24.846Z,98950.94
2022-09-14T03:53:52.653Z,98938.38
2022-09-14T03:56:24.039Z,98951.50
2022-09-14T03:58:52.582Z,98948.22
2022-09-14T04:01:23.703Z,98951.56
2022-09-14T04:03:52.186Z,98951.31
2022-09-14T04:06:20.857Z,98958.84
2022-09-14T04:08:48.787Z,98957.50
2022-09-14T04:11:23.301Z,98956.69
2022-09-14T04:13:52.833Z,98949.19
2022-09-14T04:16:22.354Z,98946.03
2022-09-14T04:18:50.923Z,98953.78
2022-09-14T04:21:24.081Z,98952.78
2022-09-14T04:24:14.088Z,98960.88
2022-09-14T04:26:45.685Z,98961.75
2022-09-14T04:29:14.815Z,98961.16
2022-09-14T04:31:42.815Z,98958.75
2022-09-14T04:34:14.127Z,98967.22
2022-09-14T04:36:43.669Z,98951.66
2022-09-14T04:39:14.119Z,98945.72
2022-09-14T04:41:44.200Z,98943.56
2022-09-14T04:44:12.956Z,98938.72
2022-09-14T04:46:46.596Z,98930.97
2022-09-14T04:49:18.974Z,98937.09
2022-09-14T04:51:48.868Z,98927.59
2022-09-14T04:54:19.342Z,98929.53
2022-09-14T04:56:48.833Z,98921.81
2022-09-14T04:59:16.778Z,98917.16
2022-09-14T05:01:49.266Z,98925.78
2022-09-14T05:04:18.129Z,98938.81
2022-09-14T05:06:46.415Z,98932.47
2022-09-14T05:09:18.621Z,98931.28
2022-09-14T05:11:47.075Z,98938.50
2022-09-14T05:14:15.823Z,98937.44
2022-09-14T05:16:45.193Z,98940.06
2022-09-14T05:19:18.379Z,98946.94
2022-09-14T05:21:47.823Z,98937.25
2022-09-14T05:24:19.090Z,98928.03
2022-09-14T05:26:47.695Z,98926.34
2022-09-14T05:29:18.985Z,98929.34
2022-09-14T05:31:48.294Z,98927.19
2022-09-14T05:34:17.084Z,98928.34
2022-09-14T05:36:44.900Z,98929.34
2022-09-14T05:39:12.947Z,98933.50
2022-09-14T05:41:41.570Z,98932.09
2022-09-14T05:44:11.099Z,98943.72
2022-09-14T05:46:39.749Z,98946.03
2022-09-14T05:49:08.326Z,98940.59
2022-09-14T05:51:36.725Z,98951.72
2022-09-14T05:54:10.269Z,98953.09
2022-09-14T05:56:39.107Z,98948.88
2022-09-14T05:59:06.869Z,98934.03
2022-09-14T06:01:35.366Z,98926.50
2022-09-14T06:04:04.966Z,98919.50
2022-09-14T06:06:34.087Z,98913.41
2022-09-14T06:09:01.889Z,98909.66
2022-09-14T06:11:36.366Z,98912.88
2022-09-14T06:14:06.182Z,98911.59
2022-09-14T06:16:34.951Z,98929.09
2022-09-14T06:19:02.904Z,98932.03
2022-09-14T06:21:35.539Z,98933.09
2022-09-14T06:24:04.447Z,98945.44
2022-09-14T06:26:32.422Z,98945.66
2022-09-14T06:29:00.990Z,98950.44
2022-09-14T06:31:29.460Z,98961.72
2022-09-14T06:33:59.019Z,98952.41
2022-09-14T06:36:28.966Z,98949.31
2022-09-14T06:38:59.432Z,98943.00
2022-09-14T06:41:30.699Z,98932.94
2022-09-14T06:44:01.910Z,98917.44
2022-09-14T06:46:34.011Z,98934.38
2022-09-14T06:49:07.791Z,98931.34
2022-09-14T06:51:42.627Z,98936.50
2022-09-14T06:54:15.588Z,98939.38
2022-09-14T06:56:46.455Z,98933.28
2022-09-14T06:59:18.929Z,98923.47
2022-09-14T07:01:46.755Z,98927.19
2022-09-14T07:04:15.352Z,98929.75
2022-09-14T07:06:48.433Z,98936.59
2022-09-14T07:09:19.765Z,98938.63
2022-09-14T07:11:47.847Z,98946.13
2022-09-14T07:14:16.763Z,98941.06
2022-09-14T07:16:45.189Z,98946.28
2022-09-14T07:19:15.257Z,98956.25
2022-09-14T07:21:43.641Z,98945.28
2022-09-14T07:24:15.117Z,98940.28
2022-09-14T07:26:44.278Z,98942.47
2022-09-14T07:29:19.990Z,98934.06
2022-09-14T07:31:52.913Z,98932.47
2022-09-14T07:34:21.907Z,98933.69
2022-09-14T07:36:50.320Z,98936.63
2022-09-14T07:39:19.061Z,98930.16
2022-09-14T07:41:47.563Z,98935.88
2022-09-14T07:44:17.806Z,98937.66
2022-09-14T07:46:48.822Z,98936.91
2022-09-14T07:49:17.801Z,98934.00
2022-09-14T07:51:46.784Z,98935.75
2022-09-14T07:54:16.938Z,98921.38
2022-09-14T07:56:49.459Z,98928.25
2022-09-14T07:59:35.218Z,98942.06
2022-09-14T08:02:07.761Z,98951.84
2022-09-14T08:04:37.889Z,98948.84
2022-09-14T08:07:06.491Z,98941.03
2022-09-14T08:09:35.000Z,98943.69
2022-09-14T08:12:05.641Z,98934.38
2022-09-14T08:14:34.362Z,98924.75
2022-09-14T08:17:02.392Z,98926.06
2022-09-14T08:19:30.306Z,98930.31
2022-09-14T08:21:58.805Z,98918.47
2022-09-14T08:24:27.574Z,98911.78
2022-09-14T08:26:56.058Z,98908.72
2022-09-14T08:29:24.497Z,98903.50
2022-09-14T08:31:53.559Z,98899.09
2022-09-14T08:34:22.223Z,98906.56
2022-09-14T08:36:50.943Z,98904.31
2022-09-14T08:39:19.619Z,98891.88
2022-09-14T08:42:00.342Z,98895.56
2022-09-14T08:45:09.007Z,98879.72
2022-09-14T08:47:39.995Z,98883.16
2022-09-14T08:50:18.604Z,98886.25
2022-09-14T08:52:53.657Z,98893.72
2022-09-14T08:55:46.560Z,98891.34
2022-09-14T08:58:48.547Z,98881.63
2022-09-14T09:01:48.158Z,98883.94
2022-09-14T09:04:24.644Z,98887.75
2022-09-14T09:07:06.008Z,98895.44
2022-09-14T09:09:50.947Z,98887.44
2022-09-14T09:12:42.648Z,98882.84
2022-09-14T09:15:29.732Z,98883.78
2022-09-14T09:18:41.093Z,98873.47
2022-09-14T09:21:21.511Z,98872.59
2022-09-14T09:23:50.228Z,98869.78
2022-09-14T09:26:32.825Z,98869.59
2022-09-14T09:29:04.093Z,98872.09
2022-09-14T09:31:55.143Z,98869.16
2022-09-14T09:34:31.819Z,98880.56
2022-09-14T09:37:01.131Z,98893.66
2022-09-14T09:39:33.417Z,98889.53
2022-09-14T09:42:24.803Z,98887.63
2022-09-14T09:45:06.029Z,98886.56
2022-09-14T09:47:42.302Z,98893.50
2022-09-14T09:50:13.814Z,98904.16
2022-09-14T09:52:57.575Z,98910.75
2022-09-14T09:55:38.501Z,98919.63
2022-09-14T09:58:39.515Z,98920.56
2022-09-14T10:01:30.648Z,98916.38
2022-09-14T10:04:21.474Z,98925.34
2022-09-14T10:06:57.757Z,98930.75
2022-09-14T10:09:28.686Z,98928.94
2022-09-14T10:12:05.812Z,98921.34
2022-09-14T10:14:37.988Z,98922.09
2022-09-14T10:17:23.706Z,98938.75
2022-09-14T10:19:55.025Z,98947.84
2022-09-14T10:22:36.378Z,98950.66
2022-09-14T10:25:23.841Z,98939.91
2022-09-14T10:28:00.734Z,98944.00
2022-09-14T10:31:05.286Z,98942.97
2022-09-14T10:33:35.641Z,98946.28
2022-09-14T10:36:17.476Z,98946.00
2022-09-14T10:39:27.352Z,98949.66
2022-09-14T10:42:27.292Z,98959.38
2022-09-14T10:45:31.534Z,98958.16
2022-09-14T10:48:37.784Z,98939.91
2022-09-14T10:51:46.477Z,98927.34
2022-09-14T10:55:07.062Z,98929.81
2022-09-14T10:58:21.200Z,98926.66
2022-09-14T11:01:25.476Z,98931.28
2022-09-14T11:04:37.522Z,98933.53
2022-09-14T11:07:24.585Z,98922.91
2022-09-14T11:10:07.747Z,98910.84
2022-09-14T11:13:02.190Z,98913.66
2022-09-14T11:16:03.131Z,98915.03
2022-09-14T11:19:09.995Z,98917.81
2022-09-14T11:22:03.028Z,98917.47
2022-09-14T11:24:56.758Z,98920.22
2022-09-14T11:27:53.337Z,98918.56
2022-09-14T11:30:29.442Z,98909.78
2022-09-14T11:33:41.812Z,98908.28
2022-09-14T11:36:18.767Z,98905.19
2022-09-14T11:39:19.743Z,98893.06
2022-09-14T11:42:00.281Z,98891.72
2022-09-14T11:44:40.581Z,98888.19
2022-09-14T11:47:20.990Z,98874.56
2022-09-14T11:50:24.451Z,98874.75
2022-09-14T11:53:12.992Z,98881.38
2022-09-14T11:55:51.417Z,98882.38
2022-09-14T11:58:31.329Z,98877.94
2022-09-14T12:01:25.709Z,98873.53
2022-09-14T12:03:56.881Z,98855.88
2022-09-14T12:06:31.216Z,98859.06
2022-09-14T12:09:17.652Z,98873.81
2022-09-14T12:12:24.390Z,98859.00
2022-09-14T12:15:01.220Z,98862.50
2022-09-14T12:17:41.576Z,98865.09
2022-09-14T12:20:38.283Z,98866.00
2022-09-14T12:23:37.258Z,98866.91
2022-09-14T12:26:12.018Z,98862.84
2022-09-14T12:28:50.612Z,98864.00
2022-09-14T12:31:47.555Z,98859.16
2022-09-14T12:34:28.228Z,98854.25
2022-09-14T12:37:05.715Z,98845.66
2022-09-14T12:39:37.093Z,98830.03
2022-09-14T12:42:32.596Z,98826.22
2022-09-14T12:45:52.606Z,98825.94
2022-09-14T12:48:46.940Z,98830.16
2022-09-14T12:51:30.549Z,98816.72
2022-09-14T12:54:28.624Z,98817.13
2022-09-14T12:57:34.482Z,98812.25
2022-09-14T13:00:22.684Z,98811.41
2022-09-14T13:03:22.009Z,98809.53
2022-09-14T13:05:51.961Z,98810.81
2022-09-14T13:08:25.285Z,98806.91
2022-09-14T13:10:53.939Z,98798.25
2022-09-14T13:13:30.858Z,98791.94
2022-09-14T13:16:05.148Z,98790.50
2022-09-14T13:18:38.127Z,98794.31
2022-09-14T13:21:24.995Z,98780.13
2022-09-14T13:23:53.476Z,98786.91
2022-09-14T13:26:29.489Z,98781.09
2022-09-14T13:29:01.760Z,98773.38
2022-09-14T13:31:38.950Z,98771.09
2022-09-14T13:34:07.622Z,98776.78
2022-09-14T13:36:43.590Z,98765.59
2022-09-14T13:39:38.309Z,98767.28
2022-09-14T13:42:08.418Z,98756.34
2022-09-14T13:44:45.464Z,98764.28
2022-09-14T13:47:19.738Z,98766.97
2022-09-14T13:49:52.011Z,98778.44
2022-09-14T13:52:56.952Z,98778.25
2022-09-14T13:55:29.917Z,98771.72
2022-09-14T13:58:26.543Z,98780.81
2022-09-14T14:01:05.237Z,98770.22
2022-09-14T14:03:49.188Z,98776.78
2022-09-14T14:06:38.377Z,98771.72
2022-09-14T14:09:10.624Z,98777.78
2022-09-14T14:11:55.194Z,98769.16
2022-09-14T14:14:31.113Z,98769.16
2022-09-14T14:17:34.656Z,98770.88
2022-09-14T14:20:24.727Z,98782.41
2022-09-14T14:23:10.954Z,98773.69
2022-09-14T14:25:49.550Z,98762.84
2022-09-14T14:28:29.660Z,98766.84
2022-09-14T14:31:07.795Z,98765.34
2022-09-14T14:33:49.374Z,98767.72
2022-09-14T14:36:19.868Z,98768.56
2022-09-14T14:38:48.549Z,98761.59
2022-09-14T14:41:22.194Z,98752.88
2022-09-14T14:43:50.983Z,98745.53
2022-09-14T14:46:19.638Z,98737.88
2022-09-14T14:48:48.087Z,98734.84
2022-09-14T14:51:16.578Z,98736.38
2022-09-14T14:53:46.100Z,98728.06
2022-09-14T14:56:15.063Z,98732.28
2022-09-14T14:58:48.543Z,98741.97
2022-09-14T15:01:17.256Z,98746.38
2022-09-14T15:03:45.983Z,98733.53
2022-09-14T15:06:24.607Z,98718.56
2022-09-14T15:08:56.892Z,98719.88
2022-09-14T15:11:25.339Z,98717.31
2022-09-14T15:13:53.822Z,98723.22
2022-09-14T15:16:22.201Z,98732.56
2022-09-14T15:18:50.800Z,98723.31
2022-09-14T15:21:19.372Z,98710.66
2022-09-14T15:23:49.550Z,98723.34
2022-09-14T15:26:18.220Z,98719.91
2022-09-14T15:28:48.566Z,98723.81
2022-09-14T15:31:17.005Z,98725.66
2022-09-14T15:33:45.736Z,98733.66
2022-09-14T15:36:14.558Z,98731.31
2022-09-14T15:38:42.935Z,98728.81
2022-09-14T15:41:14.354Z,98725.13
2022-09-14T15:43:44.541Z,98702.75
2022-09-14T15:46:13.009Z,98693.28
2022-09-14T15:48:41.563Z,98687.78
2022-09-14T15:51:12.064Z,98682.97
2022-09-14T15:53:40.481Z,98666.91
2022-09-14T15:56:15.858Z,98663.06
2022-09-14T15:58:47.984Z,98652.50
2022-09-14T16:01:19.413Z,98654.06
2022-09-14T16:03:48.906Z,98653.38
2022-09-14T16:06:18.363Z,98648.75
2022-09-14T16:08:46.961Z,98644.56
2022-09-14T16:11:15.463Z,98641.75
2022-09-14T16:13:43.925Z,98642.00
2022-09-14T16:16:16.026Z,98640.88
2022-09-14T16:18:44.858Z,98652.63
2022-09-14T16:21:27.270Z,98650.81
2022-09-14T16:24:00.615Z,98643.91
2022-09-14T16:26:36.160Z,98653.69
2022-09-14T16:29:08.537Z,98659.22
2022-09-14T16:31:41.948Z,98664.69
2022-09-14T16:34:29.256Z,98675.88
2022-09-14T16:36:58.882Z,98692.94
2022-09-14T16:39:30.125Z,98697.06
2022-09-14T16:42:00.083Z,98702.72
2022-09-14T16:44:29.460Z,98698.50
2022-09-14T16:46:59.526Z,98686.19
2022-09-14T16:49:28.595Z,98691.28
2022-09-14T16:52:00.785Z,98683.25
2022-09-14T16:54:31.862Z,98682.16
2022-09-14T16:57:01.521Z,98670.38
2022-09-14T16:59:29.994Z,98671.97
2022-09-14T17:01:58.389Z,98665.66
2022-09-14T17:04:27.112Z,98664.25
2022-09-14T17:06:56.891Z,98663.66
2022-09-14T17:09:29.640Z,98668.44
2022-09-14T17:11:59.207Z,98666.00
2022-09-14T17:14:33.207Z,98654.41
2022-09-14T17:17:02.149Z,98641.25
2022-09-14T17:19:30.744Z,98634.16
2022-09-14T17:21:59.263Z,98632.31
2022-09-14T17:24:29.404Z,98639.25
2022-09-14T17:26:57.947Z,98637.31
2022-09-14T17:29:26.386Z,98645.53
2022-09-14T17:31:55.600Z,98637.69
2022-09-14T17:34:24.356Z,98642.50
2022-09-14T17:36:52.835Z,98631.13
2022-09-14T17:39:21.390Z,98630.53
2022-09-14T17:41:49.930Z,98629.41
2022-09-14T17:44:20.127Z,98625.28
2022-09-14T17:46:52.663Z,98611.41
2022-09-14T17:49:23.176Z,98611.38
2022-09-14T17:51:52.481Z,98605.25
2022-09-14T17:54:21.521Z,98607.69
2022-09-14T17:56:50.176Z,98616.09
2022-09-14T17:59:21.388Z,98609.25
2022-09-14T18:01:51.081Z,98606.06
2022-09-14T18:04:19.897Z,98597.84
2022-09-14T18:06:50.253Z,98596.53
2022-09-14T18:09:24.884Z,98597.19
2022-09-14T18:11:57.435Z,98588.25
2022-09-14T18:14:27.814Z,98590.25
2022-09-14T18:16:58.425Z,98592.97
2022-09-14T18:19:28.057Z,98589.28
2022-09-14T18:21:56.593Z,98591.81
2022-09-14T18:24:25.188Z,98588.25
2022-09-14T18:26:54.019Z,98603.16
2022-09-14T18:29:23.703Z,98599.81
2022-09-14T18:31:54.105Z,98612.38
2022-09-14T18:34:25.405Z,98621.16
2022-09-14T18:36:54.128Z,98620.44
2022-09-14T18:39:22.754Z,98626.63
2022-09-14T18:41:53.953Z,98640.50
2022-09-14T18:44:23.646Z,98626.78
2022-09-14T18:46:52.450Z,98615.78
2022-09-14T18:49:21.334Z,98609.66
2022-09-14T18:51:50.136Z,98605.44
2022-09-14T18:54:19.010Z,98603.56
2022-09-14T18:56:48.623Z,98597.59
2022-09-14T18:59:17.621Z,98575.00
2022-09-14T19:01:46.843Z,98567.06
2022-09-14T19:04:15.990Z,98571.97
2022-09-14T19:06:44.818Z,98570.31
2022-09-14T19:09:13.523Z,98568.25
2022-09-14T19:11:42.320Z,98577.75
2022-09-14T19:14:13.990Z,98569.63
2022-09-14T19:16:43.237Z,98569.63
2022-09-14T19:19:16.847Z,98565.03
2022-09-14T19:21:45.692Z,98558.41
2022-09-14T19:24:17.262Z,98548.22
2022-09-14T19:26:51.949Z,98560.44
2022-09-14T19:29:25.646Z,98557.91
2022-09-14T19:31:54.942Z,98555.84
2022-09-14T19:34:26.745Z,98563.84
2022-09-14T19:36:56.540Z,98564.16
2022-09-14T19:39:26.929Z,98556.03
2022-09-14T19:41:55.569Z,98569.63
2022-09-14T19:44:25.389Z,98566.03
2022-09-14T19:46:56.242Z,98567.91
2022-09-14T19:49:26.256Z,98567.63
2022-09-14T19:51:55.270Z,98565.63
2022-09-14T19:54:24.952Z,98570.69
2022-09-14T19:56:54.412Z,98593.38
2022-09-14T19:59:23.106Z,98578.38
2022-09-14T20:01:52.068Z,98576.69
2022-09-14T20:04:22.935Z,98558.06
2022-09-14T20:06:51.784Z,98558.22
2022-09-14T20:09:23.676Z,98556.38
2022-09-14T20:11:53.968Z,98560.78
2022-09-14T20:14:25.303Z,98571.31
2022-09-14T20:16:58.793Z,98574.34
2022-09-14T20:19:31.130Z,98571.63
2022-09-14T20:21:59.762Z,98570.97
2022-09-14T20:24:31.739Z,98568.38
2022-09-14T20:27:02.357Z,98562.81
2022-09-14T20:29:35.404Z,98557.56
2022-09-14T20:32:07.191Z,98550.25
2022-09-14T20:34:35.877Z,98540.06
2022-09-14T20:37:05.044Z,98538.03
2022-09-14T20:39:38.247Z,98546.19
2022-09-14T20:42:07.065Z,98540.06
2022-09-14T20:44:36.901Z,98538.88
2022-09-14T20:47:06.010Z,98537.34
2022-09-14T20:49:34.604Z,98527.78
2022-09-14T20:52:03.751Z,98534.53
2022-09-14T20:54:31.614Z,98533.75
2022-09-14T20:57:04.229Z,98538.91
2022-09-14T20:59:33.585Z,98540.75
2022-09-14T21:04:50.860Z,98541.06
2022-09-14T21:07:19.389Z,98538.91
2022-09-14T21:09:47.957Z,98532.66
2022-09-14T21:11:13.188Z,98542.97
2022-09-14T21:12:16.746Z,98532.94
2022-09-14T21:14:45.439Z,98538.00
2022-09-14T21:17:13.849Z,98542.09
2022-09-14T21:19:42.408Z,98540.75
2022-09-14T21:22:10.995Z,98539.53
2022-09-14T21:24:39.771Z,98547.16
2022-09-14T21:27:08.295Z,98550.34
2022-09-14T21:29:36.905Z,98549.22
2022-09-14T21:32:08.826Z,98543.56
2022-09-14T21:34:37.721Z,98547.06
2022-09-14T21:37:06.277Z,98541.59
2022-09-14T21:39:34.737Z,98535.50
2022-09-14T21:42:03.326Z,98535.97
2022-09-14T21:44:35.552Z,98532.19
2022-09-14T21:47:05.041Z,98534.72
2022-09-14T21:49:33.556Z,98538.97
2022-09-14T21:52:02.360Z,98537.84
2022-09-14T21:54:32.039Z,98530.22
2022-09-14T21:57:00.615Z,98522.75
2022-09-14T21:59:29.036Z,98532.38
2022-09-14T22:01:58.143Z,98530.53
2022-09-14T22:04:27.011Z,98524.56
2022-09-14T22:06:57.251Z,98522.03
2022-09-14T22:09:28.994Z,98522.41
2022-09-14T22:14:30.130Z,98515.34
2022-09-14T22:16:58.657Z,98513.66
2022-09-14T22:19:32.732Z,98515.06
2022-09-14T22:22:01.513Z,98508.47
2022-09-14T22:24:38.431Z,98502.72
2022-09-14T22:27:11.826Z,98498.22
2022-09-14T22:29:42.203Z,98499.34
2022-09-14T22:32:12.314Z,98505.84
2022-09-14T22:34:42.716Z,98513.28
2022-09-14T22:37:13.587Z,98511.03
2022-09-14T22:40:35.050Z,98522.34
2022-09-14T22:43:03.432Z,98511.88
2022-09-14T22:45:31.991Z,98512.63
2022-09-14T22:48:00.887Z,98516.41
2022-09-14T22:50:29.636Z,98506.41
2022-09-14T22:52:58.377Z,98508.97
2022-09-14T22:55:27.146Z,98501.81
2022-09-14T22:57:55.713Z,98494.03
2022-09-14T23:00:24.383Z,98490.25
2022-09-14T23:02:53.169Z,98497.19
2022-09-14T23:05:21.766Z,98487.63
2022-09-14T23:07:50.394Z,98494.75
2022-09-14T23:10:18.823Z,98493.84
2022-09-14T23:12:47.243Z,98492.38
2022-09-14T23:15:16.336Z,98499.63
2022-09-14T23:17:48.763Z,98506.44
2022-09-14T23:20:19.927Z,98503.16
2022-09-14T23:22:48.333Z,98501.63
2022-09-14T23:25:16.924Z,98508.75
2022-09-14T23:27:45.336Z,98505.75
2022-09-14T23:30:14.824Z,98493.34
2022-09-14T23:32:43.509Z,98488.94
2022-09-14T23:35:12.541Z,98483.06
2022-09-14T23:37:41.256Z,98478.16
2022-09-14T23:40:10.522Z,98485.78
2022-09-14T23:42:39.376Z,98473.63
2022-09-14T23:45:08.985Z,98473.63
2022-09-14T23:47:37.447Z,98475.63
2022-09-14T23:50:08.334Z,98483.63
2022-09-14T23:52:37.730Z,98474.28
2022-09-14T23:55:07.184Z,98472.38
2022-09-14T23:57:36.752Z,98474.28
